Time;durP1;ratioP1;P1;durP2;ratioP2;P2;SDS_P1;SDS_P2;PMS_P1;PMS_P2;Temp;Humidity;BMP_temperature;BMP_pressure;BME280_temperature;BME280_humidity;BME280_pressure;Samples;Min_cycle;Max_cycle;Signal;HPM_P1;HPM_P2
2022/03/25 00:02:17;;;;;;;;;;;;;;;11.85;59.17;102842.94;5054635;28;20054;-48
2022/03/25 00:04:45;;;;;;;;;;;;;;;11.83;59.22;102842.34;5053305;28;19921;-48
2022/03/25 00:07:13;;;;;;;;;;;;;;;11.81;58.47;102841.75;5054125;28;20363;-46
2022/03/25 00:09:40;;;;;;;;;;;;;;;11.75;59.17;102842.66;5046781;28;19921;-48
2022/03/25 00:12:08;;;;;;;;;;;;;;;11.61;59.54;102849.31;5034063;28;20393;-47
2022/03/25 00:14:35;;;;;;;;;;;;;;;11.52;59.80;102841.41;5035553;28;19921;-46
2022/03/25 00:17:03;;;;;;;;;;;;;;;11.53;59.80;102839.50;5034290;28;19920;-48
2022/03/25 00:19:31;;;;;;;;;;;;;;;11.47;59.93;102843.13;5034390;28;19925;-47
2022/03/25 00:21:58;;;;;;;;;;;;;;;11.41;59.92;102844.88;5043063;28;19921;-46
2022/03/25 00:24:26;;;;;;;;;;;;;;;11.25;60.11;102842.69;5034443;28;19921;-47
2022/03/25 00:26:54;;;;;;;;;;;;;;;11.23;60.00;102848.41;5034306;28;20371;-49
2022/03/25 00:29:21;;;;;;;;;;;;;;;11.22;60.31;102843.16;5034069;28;19928;-45
2022/03/25 00:31:49;;;;;;;;;;;;;;;11.22;59.84;102843.16;5053275;28;19963;-50
2022/03/25 00:34:16;;;;;;;;;;;;;;;11.25;59.29;102845.41;5030684;28;19975;-47
2022/03/25 00:36:44;;;;;;;;;;;;;;;11.28;59.51;102847.69;5033565;28;19921;-47
2022/03/25 00:39:11;;;;;;;;;;;;;;;11.34;59.60;102852.28;5033797;28;20368;-47
2022/03/25 00:41:44;;;;;;;;;;;;;;;11.40;58.98;102845.94;5034082;28;20306;-49
2022/03/25 00:44:12;;;;;;;;;;;;;;;11.45;58.55;102848.00;5052977;28;20003;-48
2022/03/25 00:46:40;;;;;;;;;;;;;;;11.47;58.85;102852.19;5052795;28;20294;-51
2022/03/25 00:49:08;;;;;;;;;;;;;;;11.49;58.50;102850.03;5053560;28;19921;-51
2022/03/25 00:51:35;;;;;;;;;;;;;;;11.47;57.83;102845.84;5052599;28;19925;-48
2022/03/25 00:54:03;;;;;;;;;;;;;;;11.43;58.31;102847.38;5050704;28;19956;-50
2022/03/25 00:56:30;;;;;;;;;;;;;;;11.39;57.39;102844.25;5035785;28;19921;-50
2022/03/25 00:58:58;;;;;;;;;;;;;;;11.34;57.48;102846.00;5053726;28;19921;-50
2022/03/25 01:01:26;;;;;;;;;;;;;;;11.30;57.54;102845.59;5037809;28;19928;-50
2022/03/25 01:03:54;;;;;;;;;;;;;;;11.22;57.16;102846.72;5051523;28;20008;-44
2022/03/25 01:06:24;;;;;;;;;;;;;;;11.11;57.27;102835.66;5037005;28;19921;-47
2022/03/25 01:08:52;;;;;;;;;;;;;;;11.05;57.63;102849.16;5033986;28;20352;-48
2022/03/25 01:11:19;;;;;;;;;;;;;;;11.07;57.20;102841.59;5033705;28;19925;-48
2022/03/25 01:13:47;;;;;;;;;;;;;;;11.09;57.61;102839.47;5034723;28;19936;-48
2022/03/25 01:16:14;;;;;;;;;;;;;;;11.14;57.01;102841.53;5046076;28;19952;-48
2022/03/25 01:18:43;;;;;;;;;;;;;;;11.17;57.14;102849.28;5033011;28;19921;-48
2022/03/25 01:21:10;;;;;;;;;;;;;;;11.15;56.59;102839.63;5047463;28;20337;-46
2022/03/25 01:23:38;;;;;;;;;;;;;;;11.13;56.57;102839.84;5033317;28;19921;-52
2022/03/25 01:26:06;;;;;;;;;;;;;;;11.11;56.95;102849.31;5039808;28;19921;-48
2022/03/25 01:28:35;;;;;;;;;;;;;;;11.09;56.35;102847.66;5036465;28;19921;-48
2022/03/25 01:31:03;;;;;;;;;;;;;;;11.05;56.33;102843.69;5036182;28;19961;-52
2022/03/25 01:33:35;;;;;;;;;;;;;;;10.94;56.40;102852.56;5037087;28;19952;-47
2022/03/25 01:36:03;;;;;;;;;;;;;;;10.88;55.99;102853.47;5036900;28;20339;-49
2022/03/25 01:38:32;;;;;;;;;;;;;;;10.81;56.06;102844.50;5046239;28;20291;-47
2022/03/25 01:41:00;;;;;;;;;;;;;;;10.58;55.98;102853.22;5039837;28;20016;-49
2022/03/25 01:43:27;;;;;;;;;;;;;;;10.49;56.88;102849.94;5037115;28;19921;-50
2022/03/25 01:45:55;;;;;;;;;;;;;;;10.47;56.54;102846.59;5035701;28;19928;-48
2022/03/25 01:48:23;;;;;;;;;;;;;;;10.47;56.16;102835.69;5035654;28;19960;-51
2022/03/25 01:50:51;;;;;;;;;;;;;;;10.46;55.78;102842.16;5028696;28;19921;-49
2022/03/25 01:53:20;;;;;;;;;;;;;;;10.41;56.24;102844.72;5054171;28;19920;-49
2022/03/25 01:55:49;;;;;;;;;;;;;;;10.42;55.82;102843.69;5055679;28;19920;-50
2022/03/25 01:58:16;;;;;;;;;;;;;;;10.47;56.07;102841.13;5044720;28;20269;-50
2022/03/25 02:00:44;;;;;;;;;;;;;;;10.55;55.50;102849.03;5035578;28;19924;-48
2022/03/25 02:03:13;;;;;;;;;;;;;;;10.58;54.99;102836.88;5036913;28;19967;-43
2022/03/25 02:05:41;;;;;;;;;;;;;;;10.58;55.17;102837.72;5050658;28;19953;-45
2022/03/25 02:08:09;;;;;;;;;;;;;;;10.52;54.65;102835.88;5040493;28;19920;-47
2022/03/25 02:10:38;;;;;;;;;;;;;;;10.43;54.63;102837.16;5054722;28;19921;-44
2022/03/25 02:13:08;;;;;;;;;;;;;;;10.33;54.63;102840.34;5055623;28;19966;-50
2022/03/25 02:15:40;;;;;;;;;;;;;;;10.29;54.88;102832.81;5047432;28;19925;-47
2022/03/25 02:18:10;;;;;;;;;;;;;;;10.15;54.65;102841.03;5046660;28;20367;-46
2022/03/25 02:20:38;;;;;;;;;;;;;;;10.03;54.63;102840.88;5036726;28;20371;-49
2022/03/25 02:23:09;;;;;;;;;;;;;;;9.99;54.83;102838.78;5036364;28;19921;-48
2022/03/25 02:25:38;;;;;;;;;;;;;;;9.96;54.94;102833.78;5066719;28;20406;-50
2022/03/25 02:28:06;;;;;;;;;;;;;;;9.96;54.70;102834.59;5023500;28;19925;-47
2022/03/25 02:30:36;;;;;;;;;;;;;;;9.93;54.39;102839.63;5051994;28;19925;-48
2022/03/25 02:33:07;;;;;;;;;;;;;;;9.79;54.85;102834.25;5018897;28;19921;-48
2022/03/25 02:35:35;;;;;;;;;;;;;;;9.75;54.94;102832.97;5043534;28;20351;-49
2022/03/25 02:38:04;;;;;;;;;;;;;;;9.80;54.64;102835.06;5054535;28;20011;-49
2022/03/25 02:40:32;;;;;;;;;;;;;;;9.81;54.84;102832.13;5055005;28;19921;-49
2022/03/25 02:43:00;;;;;;;;;;;;;;;9.86;54.64;102830.63;5054930;28;19921;-49
2022/03/25 02:45:28;;;;;;;;;;;;;;;9.86;54.14;102833.38;5052332;28;19920;-48
2022/03/25 02:47:55;;;;;;;;;;;;;;;9.84;54.16;102833.59;5035281;28;20097;-47
2022/03/25 02:50:23;;;;;;;;;;;;;;;9.79;54.56;102839.69;5034962;28;19927;-51
2022/03/25 02:52:50;;;;;;;;;;;;;;;9.82;54.76;102839.25;5036076;28;19943;-50
2022/03/25 02:55:18;;;;;;;;;;;;;;;9.90;54.30;102834.63;5050882;28;19921;-52
2022/03/25 02:57:46;;;;;;;;;;;;;;;9.99;54.04;102838.78;5055975;28;19947;-51
2022/03/25 03:00:13;;;;;;;;;;;;;;;10.02;53.48;102843.78;5054746;28;19936;-50
2022/03/25 03:02:41;;;;;;;;;;;;;;;10.02;53.76;102838.34;5055622;28;19928;-48
2022/03/25 03:05:09;;;;;;;;;;;;;;;10.03;53.67;102840.03;5051206;28;19982;-50
2022/03/25 03:07:36;;;;;;;;;;;;;;;10.02;53.80;102838.34;5035337;28;19925;-51
2022/03/25 03:10:04;;;;;;;;;;;;;;;10.05;53.93;102846.09;5035691;28;20391;-49
2022/03/25 03:12:32;;;;;;;;;;;;;;;10.05;53.41;102843.34;5034348;28;19921;-51
2022/03/25 03:15:00;;;;;;;;;;;;;;;10.00;53.74;102852.16;5050096;28;19921;-52
2022/03/25 03:17:27;;;;;;;;;;;;;;;9.96;53.77;102845.50;5054319;28;20291;-51
2022/03/25 03:19:55;;;;;;;;;;;;;;;9.89;53.84;102843.84;5055293;28;19928;-50
2022/03/25 03:22:23;;;;;;;;;;;;;;;9.88;54.04;102842.16;5055408;28;19920;-49
2022/03/25 03:24:51;;;;;;;;;;;;;;;9.88;53.61;102836.72;5048379;28;19920;-51
2022/03/25 03:27:18;;;;;;;;;;;;;;;9.87;53.69;102833.16;5035467;28;19921;-50
2022/03/25 03:29:46;;;;;;;;;;;;;;;9.77;53.73;102840.94;5054819;28;19932;-51
2022/03/25 03:32:13;;;;;;;;;;;;;;;9.49;54.10;102833.84;5054127;28;19929;-53
2022/03/25 03:34:41;;;;;;;;;;;;;;;9.30;54.98;102832.00;5052770;28;19921;-50
2022/03/25 03:37:08;;;;;;;;;;;;;;;9.24;55.23;102833.69;5053437;28;19921;-48
2022/03/25 03:39:36;;;;;;;;;;;;;;;9.17;55.07;102830.13;5055103;28;19931;-50
2022/03/25 03:42:03;;;;;;;;;;;;;;;9.17;55.83;102835.56;5046250;28;19921;-51
2022/03/25 03:44:31;;;;;;;;;;;;;;;9.21;55.27;102836.78;5054673;28;20255;-50
2022/03/25 03:46:58;;;;;;;;;;;;;;;9.22;55.03;102833.06;5034104;28;19921;-52
2022/03/25 03:49:26;;;;;;;;;;;;;;;9.11;55.61;102828.22;5034720;28;20368;-49
2022/03/25 03:51:54;;;;;;;;;;;;;;;9.18;56.11;102829.06;5033866;28;19975;-51
2022/03/25 03:54:22;;;;;;;;;;;;;;;9.19;55.30;102838.91;5034961;28;19921;-51
2022/03/25 03:56:49;;;;;;;;;;;;;;;9.12;55.58;102833.47;5034180;28;19921;-48
2022/03/25 03:59:17;;;;;;;;;;;;;;;9.15;55.68;102837.66;5034412;28;19925;-49
2022/03/25 04:01:45;;;;;;;;;;;;;;;9.22;55.22;102833.06;5034877;28;19975;-52
2022/03/25 04:04:13;;;;;;;;;;;;;;;9.26;55.40;102831.59;5034856;28;20363;-50
2022/03/25 04:06:40;;;;;;;;;;;;;;;9.31;55.10;102842.69;5034535;28;19944;-51
2022/03/25 04:09:09;;;;;;;;;;;;;;;9.33;54.92;102837.88;5034543;28;19932;-53
2022/03/25 04:11:36;;;;;;;;;;;;;;;9.31;54.91;102837.25;5034322;28;19925;-53
2022/03/25 04:14:04;;;;;;;;;;;;;;;9.35;54.96;102843.06;5034474;28;19925;-53
2022/03/25 04:16:37;;;;;;;;;;;;;;;9.38;54.79;102842.69;5034655;28;19931;-54
2022/03/25 04:19:06;;;;;;;;;;;;;;;9.35;55.16;102843.91;5034244;28;19920;-52
2022/03/25 04:21:33;;;;;;;;;;;;;;;9.30;54.84;102846.44;5034260;28;19921;-53
2022/03/25 04:24:01;;;;;;;;;;;;;;;9.07;55.22;102846.03;5034117;28;19922;-53
2022/03/25 04:26:28;;;;;;;;;;;;;;;8.93;56.19;102846.00;5034430;28;19935;-54
2022/03/25 04:28:56;;;;;;;;;;;;;;;8.90;56.52;102851.03;5034023;28;20323;-53
2022/03/25 04:31:23;;;;;;;;;;;;;;;8.81;55.85;102861.25;5034047;28;19921;-53
2022/03/25 04:33:51;;;;;;;;;;;;;;;8.73;56.89;102859.56;5033987;28;19921;-53
2022/03/25 04:36:18;;;;;;;;;;;;;;;8.73;56.60;102855.97;5033483;28;19921;-53
2022/03/25 04:38:46;;;;;;;;;;;;;;;8.77;56.26;102862.69;5034168;28;19921;-46
2022/03/25 04:41:14;;;;;;;;;;;;;;;8.66;56.94;102855.13;5033898;28;19927;-53
2022/03/25 04:43:41;;;;;;;;;;;;;;;8.61;56.82;102852.19;5033590;28;19928;-52
2022/03/25 04:46:09;;;;;;;;;;;;;;;8.55;57.26;102853.03;5033779;28;19925;-53
2022/03/25 04:48:37;;;;;;;;;;;;;;;8.53;57.31;102862.19;5032519;28;19925;-53
2022/03/25 04:51:06;;;;;;;;;;;;;;;8.59;57.37;102855.13;5033916;28;20031;-54
2022/03/25 04:53:34;;;;;;;;;;;;;;;8.59;57.02;102862.44;5033985;28;20398;-52
2022/03/25 04:56:02;;;;;;;;;;;;;;;8.43;57.24;102861.75;5034006;28;19968;-48
2022/03/25 04:58:29;;;;;;;;;;;;;;;8.37;58.17;102854.41;5050298;28;19921;-50
2022/03/25 05:00:57;;;;;;;;;;;;;;;8.36;57.83;102852.72;5053975;28;19924;-53
2022/03/25 05:03:24;;;;;;;;;;;;;;;8.32;57.49;102859.56;5051432;28;19921;-51
2022/03/25 05:05:52;;;;;;;;;;;;;;;8.19;58.24;102859.53;5053708;28;19921;-54
2022/03/25 05:08:21;;;;;;;;;;;;;;;8.13;58.98;102857.63;5050984;28;20083;-51
2022/03/25 05:10:48;;;;;;;;;;;;;;;8.23;59.19;102855.38;5053753;28;19927;-49
2022/03/25 05:13:28;;;;;;;;;;;;;;;8.34;58.54;102852.06;5053726;28;19920;-49
2022/03/25 05:15:55;;;;;;;;;;;;;;;8.40;57.54;102856.75;5048332;28;19921;-51
2022/03/25 05:18:23;;;;;;;;;;;;;;;8.29;58.29;102860.00;5043109;28;19921;-53
2022/03/25 05:20:51;;;;;;;;;;;;;;;8.27;58.04;102867.50;5038421;28;19921;-52
2022/03/25 05:23:18;;;;;;;;;;;;;;;8.21;58.92;102868.31;5044596;28;19921;-50
2022/03/25 05:25:46;;;;;;;;;;;;;;;8.22;58.69;102870.81;5052404;28;20280;-50
2022/03/25 05:28:15;;;;;;;;;;;;;;;8.35;58.47;102863.81;5052771;28;20007;-53
2022/03/25 05:30:42;;;;;;;;;;;;;;;8.48;57.90;102863.88;5043357;28;20382;-51
2022/03/25 05:33:10;;;;;;;;;;;;;;;8.55;58.17;102863.91;5036606;28;19965;-51
2022/03/25 05:35:38;;;;;;;;;;;;;;;8.59;57.70;102859.75;5047472;28;19928;-55
2022/03/25 05:38:05;;;;;;;;;;;;;;;8.64;57.51;102858.06;5031652;28;19921;-53
2022/03/25 05:40:33;;;;;;;;;;;;;;;8.69;57.09;102865.59;5047564;28;19921;-50
2022/03/25 05:43:01;;;;;;;;;;;;;;;8.65;56.99;102870.59;5052941;28;20481;-55
2022/03/25 05:45:29;;;;;;;;;;;;;;;8.64;57.83;102873.53;5048486;28;19927;-52
2022/03/25 05:47:56;;;;;;;;;;;;;;;8.63;57.95;102877.28;5032159;28;20014;-51
2022/03/25 05:50:24;;;;;;;;;;;;;;;8.61;57.57;102882.94;5041278;28;19920;-46
2022/03/25 05:52:51;;;;;;;;;;;;;;;8.57;57.98;102883.56;5052811;28;19921;-48
2022/03/25 05:55:19;;;;;;;;;;;;;;;8.48;57.44;102881.00;5048219;28;19928;-46
2022/03/25 05:57:46;;;;;;;;;;;;;;;8.42;58.38;102879.09;5033068;28;20023;-46
2022/03/25 06:00:14;;;;;;;;;;;;;;;8.40;58.01;102885.78;5031954;28;19928;-47
2022/03/25 06:02:44;;;;;;;;;;;;;;;8.33;58.47;102883.84;5033256;28;19944;-54
2022/03/25 06:05:11;;;;;;;;;;;;;;;8.22;58.84;102883.56;5031873;28;19921;-53
2022/03/25 06:07:40;;;;;;;;;;;;;;;8.08;59.15;102883.50;5031337;28;19921;-52
2022/03/25 06:10:08;;;;;;;;;;;;;;;8.04;59.64;102890.38;5050185;28;19931;-50
2022/03/25 06:12:36;;;;;;;;;;;;;;;8.01;60.26;102888.06;5039015;28;19925;-58
2022/03/25 06:15:04;;;;;;;;;;;;;;;7.96;60.58;102887.84;5052860;28;19920;-56
2022/03/25 06:17:32;;;;;;;;;;;;;;;7.93;60.76;102899.06;5035253;28;19921;-53
2022/03/25 06:19:59;;;;;;;;;;;;;;;7.82;60.63;102902.34;5021597;28;19921;-52
2022/03/25 06:22:27;;;;;;;;;;;;;;;7.62;62.25;102908.44;5036616;28;20302;-54
2022/03/25 06:24:55;;;;;;;;;;;;;;;7.67;62.45;102900.59;4339686;28;10000110;-52
2022/03/25 06:27:22;;;;;;;;;;;;;;;7.80;62.04;102904.44;5034147;28;19921;-53
2022/03/25 06:29:50;;;;;;;;;;;;;;;7.85;61.65;102902.78;5034699;28;19947;-54
2022/03/25 06:32:17;;;;;;;;;;;;;;;7.92;61.60;102910.16;5038414;28;19928;-52
2022/03/25 06:34:44;;;;;;;;;;;;;;;7.91;61.46;102903.84;5053083;28;19927;-56
2022/03/25 06:37:12;;;;;;;;;;;;;;;7.86;61.50;102909.03;5053225;28;19931;-52
2022/03/25 06:39:40;;;;;;;;;;;;;;;7.77;61.84;102907.50;5053227;28;19937;-51
2022/03/25 06:42:07;;;;;;;;;;;;;;;7.81;62.18;102906.09;5039878;28;19936;-50
2022/03/25 06:44:35;;;;;;;;;;;;;;;7.82;62.29;102905.06;5031792;28;19937;-52
2022/03/25 06:47:02;;;;;;;;;;;;;;;7.81;62.59;102906.91;5032807;28;20375;-54
2022/03/25 06:49:30;;;;;;;;;;;;;;;7.78;62.83;102917.34;5064516;28;19927;-54
2022/03/25 06:51:57;;;;;;;;;;;;;;;7.76;63.32;102914.00;5033032;28;19925;-51
2022/03/25 06:54:25;;;;;;;;;;;;;;;7.77;63.41;102918.38;5042262;28;19931;-54
2022/03/25 06:56:53;;;;;;;;;;;;;;;7.77;63.95;102913.81;5051276;28;19925;-52
2022/03/25 06:59:21;;;;;;;;;;;;;;;7.84;63.99;102916.53;5052406;28;19921;-52
2022/03/25 07:01:49;;;;;;;;;;;;;;;7.85;63.72;102912.81;5042037;28;20032;-50
2022/03/25 07:04:17;;;;;;;;;;;;;;;7.71;65.04;102927.31;5033424;28;19921;-50
2022/03/25 07:06:47;;;;;;;;;;;;;;;7.61;65.18;102925.78;5031229;28;19937;-53
2022/03/25 07:09:15;;;;;;;;;;;;;;;7.66;65.51;102933.31;5032420;28;19921;-51
2022/03/25 07:11:43;;;;;;;;;;;;;;;7.83;65.15;102931.16;5049273;28;19921;-51
2022/03/25 07:14:10;;;;;;;;;;;;;;;7.96;64.99;102927.69;5041820;28;19955;-51
2022/03/25 07:16:42;;;;;;;;;;;;;;;8.11;64.17;102926.53;5045280;28;19944;-50
2022/03/25 07:19:09;;;;;;;;;;;;;;;8.07;64.92;102930.69;5050948;28;19920;-52
2022/03/25 07:21:37;;;;;;;;;;;;;;;8.04;65.88;102939.25;5043354;28;19927;-52
2022/03/25 07:24:04;;;;;;;;;;;;;;;8.13;65.33;102936.34;5053394;28;19921;-55
2022/03/25 07:26:32;;;;;;;;;;;;;;;8.13;65.52;102941.78;5053823;28;19920;-51
2022/03/25 07:29:00;;;;;;;;;;;;;;;8.05;66.24;102945.50;5053531;28;19921;-54
2022/03/25 07:31:28;;;;;;;;;;;;;;;8.01;66.24;102934.22;5038423;28;19925;-50
2022/03/25 07:33:56;;;;;;;;;;;;;;;8.07;65.66;102946.97;5054643;28;19927;-55
2022/03/25 07:36:23;;;;;;;;;;;;;;;8.07;66.16;102949.69;5054626;28;19920;-55
2022/03/25 07:38:51;;;;;;;;;;;;;;;8.07;65.64;102949.69;5054122;28;19921;-53
2022/03/25 07:41:19;;;;;;;;;;;;;;;8.14;66.37;102955.19;5051826;28;19993;-54
2022/03/25 07:43:46;;;;;;;;;;;;;;;8.25;65.48;102956.47;5053368;28;19927;-54
2022/03/25 07:46:14;;;;;;;;;;;;;;;8.22;64.67;102949.56;5054168;28;19924;-53
2022/03/25 07:48:42;;;;;;;;;;;;;;;8.16;65.08;102974.00;5042593;28;19921;-53
2022/03/25 07:51:10;;;;;;;;;;;;;;;8.21;65.81;102966.91;5052394;28;19921;-55
2022/03/25 07:53:37;;;;;;;;;;;;;;;8.19;65.54;102971.72;5055450;28;20022;-51
2022/03/25 07:56:05;;;;;;;;;;;;;;;8.28;65.04;102977.84;5054561;28;19944;-54
2022/03/25 07:58:32;;;;;;;;;;;;;;;8.42;65.67;102976.91;5048682;28;19943;-53
2022/03/25 08:01:01;;;;;;;;;;;;;;;8.45;64.37;102984.66;5035117;28;20051;-56
2022/03/25 08:03:29;;;;;;;;;;;;;;;8.53;64.77;102976.31;5034085;28;19928;-54
2022/03/25 08:05:57;;;;;;;;;;;;;;;8.59;65.20;102979.28;5032857;28;19921;-55
2022/03/25 08:08:30;;;;;;;;;;;;;;;8.63;65.38;102984.09;5044478;28;20372;-53
2022/03/25 08:10:58;;;;;;;;;;;;;;;8.61;63.73;102988.06;5035305;28;19921;-52
2022/03/25 08:13:26;;;;;;;;;;;;;;;8.62;64.20;102985.16;5034407;28;19928;-52
2022/03/25 08:15:53;;;;;;;;;;;;;;;8.68;65.16;102986.22;5034192;28;19925;-55
2022/03/25 08:18:21;;;;;;;;;;;;;;;8.71;64.04;102991.25;5033886;28;20355;-52
2022/03/25 08:20:48;;;;;;;;;;;;;;;8.72;64.56;102999.19;5033568;28;20364;-48
2022/03/25 08:28:50;;;;;;;;;;;;;;;8.86;63.22;102997.38;5035479;28;20398;-54
2022/03/25 08:31:37;;;;;;;;;;;;;;;8.94;61.90;102994.47;5053175;28;20325;-54
2022/03/25 08:34:07;;;;;;;;;;;;;;;9.01;61.89;102997.22;5052688;28;19928;-51
2022/03/25 08:36:35;;;;;;;;;;;;;;;9.04;61.65;103004.97;5053737;28;19927;-53
2022/03/25 08:39:03;;;;;;;;;;;;;;;9.06;60.51;103000.16;5052181;28;20347;-54
2022/03/25 08:41:30;;;;;;;;;;;;;;;9.09;60.77;102998.91;5052252;28;20379;-52
2022/03/25 08:43:58;;;;;;;;;;;;;;;9.22;61.47;103001.69;5053744;28;19947;-52
2022/03/25 08:46:25;;;;;;;;;;;;;;;9.28;60.57;102998.13;5052156;28;19920;-53
2022/03/25 08:48:53;;;;;;;;;;;;;;;9.36;59.58;103003.41;5047439;28;20003;-51
2022/03/25 08:51:20;;;;;;;;;;;;;;;9.42;58.63;103006.34;5033836;28;20020;-52
2022/03/25 08:53:48;;;;;;;;;;;;;;;9.48;58.22;103000.91;5033583;28;19932;-51
2022/03/25 08:56:16;;;;;;;;;;;;;;;9.54;58.21;103008.22;5032444;28;19921;-56
2022/03/25 08:58:43;;;;;;;;;;;;;;;9.63;58.42;103013.50;5043081;28;20290;-54
2022/03/25 09:01:11;;;;;;;;;;;;;;;9.70;57.73;103017.06;5052549;28;19924;-55
2022/03/25 09:03:39;;;;;;;;;;;;;;;9.74;57.60;103024.59;5052443;28;19920;-51
2022/03/25 09:06:06;;;;;;;;;;;;;;;9.77;57.78;103012.47;5053586;28;19920;-53
2022/03/25 09:08:34;;;;;;;;;;;;;;;9.81;57.76;103017.28;5051628;28;20011;-52
2022/03/25 09:11:03;;;;;;;;;;;;;;;9.90;57.08;103014.34;5050056;28;19920;-55
2022/03/25 09:13:31;;;;;;;;;;;;;;;9.95;56.75;103017.25;5052487;28;19921;-53
2022/03/25 09:15:58;;;;;;;;;;;;;;;9.99;56.58;103023.97;5053493;28;19924;-53
2022/03/25 09:18:26;;;;;;;;;;;;;;;10.02;56.74;103018.09;5051919;28;19921;-56
2022/03/25 09:20:54;;;;;;;;;;;;;;;10.11;56.29;103022.28;5033519;28;19927;-52
2022/03/25 09:23:21;;;;;;;;;;;;;;;10.19;55.02;103024.78;5032450;28;19927;-53
2022/03/25 09:25:49;;;;;;;;;;;;;;;10.23;54.51;103026.03;5033612;28;19925;-51
2022/03/25 09:28:16;;;;;;;;;;;;;;;10.29;53.64;103031.72;5040052;28;19943;-51
2022/03/25 09:30:44;;;;;;;;;;;;;;;10.34;53.80;103026.47;5053108;28;19925;-53
2022/03/25 09:33:11;;;;;;;;;;;;;;;10.42;53.20;103034.44;5053382;28;19927;-55
2022/03/25 09:35:42;;;;;;;;;;;;;;;10.47;53.71;103025.63;5053179;28;19952;-54
2022/03/25 09:38:11;;;;;;;;;;;;;;;10.53;53.17;103024.75;5051728;28;19921;-54
2022/03/25 09:40:42;;;;;;;;;;;;;;;10.54;52.67;103027.28;5052196;28;19925;-51
2022/03/25 09:43:11;;;;;;;;;;;;;;;10.62;51.92;103020.75;5052846;28;20290;-53
2022/03/25 09:45:40;;;;;;;;;;;;;;;10.66;50.70;103013.84;5054563;28;19920;-51
2022/03/25 09:48:07;;;;;;;;;;;;;;;10.69;50.96;103012.56;5049250;28;19928;-53
2022/03/25 09:50:37;;;;;;;;;;;;;;;10.74;50.04;103012.75;5037127;28;19969;-54
2022/03/25 09:53:05;;;;;;;;;;;;;;;10.78;50.68;103011.28;5036794;28;19921;-52
2022/03/25 09:55:38;;;;;;;;;;;;;;;10.80;50.28;103009.16;5037159;28;19921;-49
2022/03/25 09:58:05;;;;;;;;;;;;;;;10.82;50.42;103013.38;5037059;28;19927;-51
2022/03/25 10:00:33;;;;;;;;;;;;;;;10.88;49.82;103003.47;5036934;28;19921;-51
2022/03/25 10:03:01;;;;;;;;;;;;;;;10.98;48.83;103014.75;5036897;28;20020;-55
2022/03/25 10:05:30;;;;;;;;;;;;;;;11.04;48.74;103010.31;5036913;28;19921;-54
2022/03/25 10:07:59;;;;;;;;;;;;;;;11.12;48.38;103007.34;5044638;28;19927;-53
2022/03/25 10:10:27;;;;;;;;;;;;;;;11.18;48.49;103013.81;5056959;28;20023;-50
2022/03/25 10:13:02;;;;;;;;;;;;;;;11.20;48.61;103014.44;5056754;28;20311;-50
2022/03/25 10:15:32;;;;;;;;;;;;;;;11.25;48.54;103015.44;5039098;28;19971;-52
2022/03/25 10:18:01;;;;;;;;;;;;;;;11.32;48.18;103012.69;5036996;28;20401;-50
2022/03/25 10:20:29;;;;;;;;;;;;;;;11.29;49.02;103013.97;5056580;28;19932;-50
2022/03/25 10:22:57;;;;;;;;;;;;;;;11.33;49.23;103014.38;5056279;28;19921;-52
2022/03/25 10:25:34;;;;;;;;;;;;;;;11.35;50.03;103008.69;5056208;28;19927;-53
2022/03/25 10:28:02;;;;;;;;;;;;;;;11.46;48.70;103014.28;5044975;28;19920;-54
2022/03/25 10:30:37;;;;;;;;;;;;;;;11.49;48.26;103008.38;5036346;28;19923;-53
2022/03/25 10:33:13;;;;;;;;;;;;;;;11.55;49.43;103000.38;5036367;28;20011;-51
2022/03/25 10:35:51;;;;;;;;;;;;;;;11.65;49.77;103000.72;5035292;28;19920;-54
2022/03/25 10:38:19;;;;;;;;;;;;;;;11.73;48.96;103003.16;5036045;28;19921;-51
2022/03/25 10:40:54;;;;;;;;;;;;;;;11.80;47.83;102998.47;5036288;28;19921;-55
2022/03/25 10:43:22;;;;;;;;;;;;;;;11.83;49.21;103006.22;5037211;28;19940;-55
2022/03/25 10:45:50;;;;;;;;;;;;;;;11.87;51.16;102998.47;5036078;28;19951;-55
2022/03/25 10:48:18;;;;;;;;;;;;;;;11.89;49.95;103002.66;5035975;28;19921;-50
2022/03/25 10:51:07;;;;;;;;;;;;;;;11.90;48.78;102990.66;5035981;28;19921;-55
2022/03/25 10:53:35;;;;;;;;;;;;;;;11.95;47.84;103000.91;5036102;28;19956;-52
2022/03/25 10:56:06;;;;;;;;;;;;;;;11.96;48.63;103002.59;5035501;28;20024;-56
2022/03/25 10:58:34;;;;;;;;;;;;;;;11.98;49.82;102999.63;5036165;28;20002;-56
2022/03/25 11:01:02;;;;;;;;;;;;;;;11.99;48.48;102995.84;5034866;28;19928;-56
2022/03/25 11:03:30;;;;;;;;;;;;;;;12.04;48.70;102988.63;5036095;28;19921;-55
2022/03/25 11:05:58;;;;;;;;;;;;;;;12.14;48.70;102996.31;5034750;28;19925;-55
2022/03/25 11:08:25;;;;;;;;;;;;;;;12.21;48.85;102991.63;5017390;28;19921;-49
2022/03/25 11:10:53;;;;;;;;;;;;;;;12.34;48.11;102994.22;5036674;28;19921;-53
2022/03/25 11:13:24;;;;;;;;;;;;;;;12.43;48.14;102996.66;5034407;28;19921;-55
2022/03/25 11:15:52;;;;;;;;;;;;;;;12.40;48.63;102991.66;5034446;28;19921;-55
2022/03/25 11:18:20;;;;;;;;;;;;;;;12.43;48.55;102991.19;5034390;28;20306;-55
2022/03/25 11:20:47;;;;;;;;;;;;;;;12.46;48.64;102986.13;5035294;28;19952;-54
2022/03/25 11:23:18;;;;;;;;;;;;;;;12.53;47.68;102981.41;5034166;28;19968;-53
2022/03/25 11:25:46;;;;;;;;;;;;;;;12.63;48.48;102975.41;5034357;28;19921;-55
2022/03/25 11:28:16;;;;;;;;;;;;;;;12.70;48.63;102981.63;5017666;28;19921;-51
2022/03/25 11:30:43;;;;;;;;;;;;;;;12.73;48.03;102981.16;5044840;28;20359;-51
2022/03/25 11:33:11;;;;;;;;;;;;;;;12.72;47.27;102982.25;5055200;28;19947;-51
2022/03/25 11:35:40;;;;;;;;;;;;;;;12.72;47.73;102979.50;5053725;28;19927;-51
2022/03/25 11:38:11;;;;;;;;;;;;;;;12.73;47.70;102975.69;5053809;28;20026;-52
2022/03/25 11:40:45;;;;;;;;;;;;;;;12.71;47.74;102977.81;5045315;28;19921;-51
2022/03/25 11:43:12;;;;;;;;;;;;;;;12.75;47.85;102976.31;5034924;28;19928;-53
2022/03/25 11:45:40;;;;;;;;;;;;;;;12.93;48.09;102972.69;5035036;28;20371;-54
2022/03/25 11:48:08;;;;;;;;;;;;;;;13.04;46.77;102973.81;5035082;28;20025;-52
2022/03/25 11:50:39;;;;;;;;;;;;;;;13.07;46.80;102967.88;5049900;28;19920;-51
2022/03/25 11:53:13;;;;;;;;;;;;;;;13.07;47.08;102967.03;5055144;28;19920;-53
2022/03/25 11:55:53;;;;;;;;;;;;;;;13.15;47.91;102967.53;5054835;28;20294;-51
2022/03/25 11:58:21;;;;;;;;;;;;;;;13.24;47.71;102964.50;5054511;28;19924;-50
2022/03/25 12:01:08;;;;;;;;;;;;;;;13.26;47.52;102959.63;5038938;28;19921;-53
2022/03/25 12:03:42;;;;;;;;;;;;;;;13.24;47.71;102959.00;5040050;28;19974;-52
2022/03/25 12:06:11;;;;;;;;;;;;;;;13.32;47.13;102959.53;5054680;28;19994;-50
2022/03/25 12:08:39;;;;;;;;;;;;;;;13.30;47.22;102952.63;5051572;28;20019;-51
2022/03/25 12:11:07;;;;;;;;;;;;;;;13.32;47.63;102945.00;5036540;28;19921;-56
2022/03/25 12:13:54;;;;;;;;;;;;;;;13.38;47.31;102950.38;5034660;28;19925;-53
2022/03/25 12:16:40;;;;;;;;;;;;;;;13.41;47.29;102954.56;5034575;28;19947;-53
2022/03/25 12:19:30;;;;;;;;;;;;;;;13.36;47.11;102957.16;5035726;28;19987;-54
2022/03/25 12:21:58;;;;;;;;;;;;;;;13.33;47.54;102943.97;5037033;28;19927;-54
2022/03/25 12:24:26;;;;;;;;;;;;;;;13.36;49.07;102943.47;5054227;28;19920;-53
2022/03/25 12:26:55;;;;;;;;;;;;;;;13.37;50.91;102936.91;5053011;28;19927;-52
2022/03/25 12:29:29;;;;;;;;;;;;;;;13.38;47.83;102946.81;5042844;28;20375;-53
2022/03/25 12:32:07;;;;;;;;;;;;;;;13.48;47.19;102938.84;5017293;28;19925;-55
2022/03/25 12:34:55;;;;;;;;;;;;;;;13.48;46.88;102936.13;5033093;28;19979;-54
2022/03/25 12:37:35;;;;;;;;;;;;;;;13.48;47.39;102927.91;5033642;28;19944;-54
2022/03/25 12:40:12;;;;;;;;;;;;;;;13.54;47.70;102929.72;5035420;28;20375;-55
2022/03/25 12:42:40;;;;;;;;;;;;;;;13.61;51.01;102933.19;5032464;28;19921;-54
2022/03/25 12:45:08;;;;;;;;;;;;;;;13.63;48.17;102925.53;5033988;28;19954;-54
2022/03/25 12:47:41;;;;;;;;;;;;;;;13.82;47.96;102925.44;5016580;28;19921;-52
2022/03/25 12:50:09;;;;;;;;;;;;;;;13.92;47.33;102913.88;5050642;28;20346;-54
2022/03/25 12:52:37;;;;;;;;;;;;;;;14.05;46.99;102928.16;5053550;28;19921;-54
2022/03/25 12:55:08;;;;;;;;;;;;;;;14.13;46.91;102931.63;5053435;28;19927;-54